Accueil
METAR-TAF:

METAR-TAF

Aéroports :

Aéroport de Bruxelles. Zaventem

Bruxelles, Belgique

latitude: 50-54N, longitude: 004-32E, altitude: 55 m

Observation

Le bulletin a été fait il y a 54 minutes, à 17:50 UTC
Vent 5 kt de nord/nord-ouest
Température 14°C
Humidité 51%
Pression 1020 hPa
Visibilité 10 km ou plus
Quelques nuages à une hauteur de 4500 ft

METAR: EBBR 121750Z 34005KT 9999 FEW045 14/04 Q1020 NOSIG

Heure: 20:44 (18:44 UTC)

Prévision

Le bulletin a été fait il y a 1 heure et 24 minutes, à 17:20 UTC
Prévision valable du 12 à 18 UTC au 13 à 24 UTC
Vent 4 kt de nord
Visibilité 10 km ou plus
Quelques nuages à une hauteur de 4000 ft

TAF: EBBR 121720Z 1218/1324 36004KT 9999 FEW040

Observations et prévisions météorologiques de plus de 4000 aéroports (messages METAR et TAF).

Les stations disponibles sont représentées par des disques jaunes et rouges sur la carte.

Passer la souris dessus pour voir le nom de la station.

Cliquer dessus pour voir les observations et prévisions météorologiques.

Pour changer de carte: cliquez sur les boutons verts avec une croix noire pour zoomer, sur le bouton vert avec un tiret pour effectuer un zoom arrière, ou sur les flèches vertes pour les cartes adjacentes.


METAR-TAF: